sensor_id;sensor_type;location;lat;lon;timestamp;P1;durP1;ratioP1;P2;durP2;ratioP2
11496;SDS011;5805;51.542;7.230;2023-02-28T00:01:40;5.47;;;3.53;;
11496;SDS011;5805;51.542;7.230;2023-02-28T00:04:06;7.00;;;3.97;;
11496;SDS011;5805;51.542;7.230;2023-02-28T00:06:32;6.63;;;3.83;;
11496;SDS011;5805;51.542;7.230;2023-02-28T00:08:57;5.90;;;3.83;;
11496;SDS011;5805;51.542;7.230;2023-02-28T00:11:23;7.33;;;4.07;;
11496;SDS011;5805;51.542;7.230;2023-02-28T00:13:50;6.27;;;3.53;;
11496;SDS011;5805;51.542;7.230;2023-02-28T00:16:16;6.87;;;2.90;;
11496;SDS011;5805;51.542;7.230;2023-02-28T00:18:44;10.70;;;4.50;;
11496;SDS011;5805;51.542;7.230;2023-02-28T00:21:10;18.17;;;8.90;;
11496;SDS011;5805;51.542;7.230;2023-02-28T00:23:36;14.17;;;7.47;;
11496;SDS011;5805;51.542;7.230;2023-02-28T00:26:02;9.67;;;4.50;;
11496;SDS011;5805;51.542;7.230;2023-02-28T00:28:27;4.77;;;2.73;;
11496;SDS011;5805;51.542;7.230;2023-02-28T00:30:55;3.97;;;2.30;;
11496;SDS011;5805;51.542;7.230;2023-02-28T00:33:20;5.00;;;2.23;;
11496;SDS011;5805;51.542;7.230;2023-02-28T00:35:46;5.03;;;2.47;;
11496;SDS011;5805;51.542;7.230;2023-02-28T00:38:12;5.43;;;2.03;;
11496;SDS011;5805;51.542;7.230;2023-02-28T00:40:37;4.87;;;2.10;;
11496;SDS011;5805;51.542;7.230;2023-02-28T00:43:03;2.70;;;1.77;;
11496;SDS011;5805;51.542;7.230;2023-02-28T00:45:29;2.40;;;1.90;;
11496;SDS011;5805;51.542;7.230;2023-02-28T00:47:56;3.20;;;1.83;;
11496;SDS011;5805;51.542;7.230;2023-02-28T00:50:22;6.77;;;2.13;;
11496;SDS011;5805;51.542;7.230;2023-02-28T00:52:49;3.60;;;1.77;;
11496;SDS011;5805;51.542;7.230;2023-02-28T00:55:18;3.43;;;1.80;;
11496;SDS011;5805;51.542;7.230;2023-02-28T00:57:43;4.07;;;1.70;;
11496;SDS011;5805;51.542;7.230;2023-02-28T01:00:09;3.67;;;1.70;;
11496;SDS011;5805;51.542;7.230;2023-02-28T01:02:36;3.57;;;1.60;;
11496;SDS011;5805;51.542;7.230;2023-02-28T01:05:03;3.20;;;2.03;;
11496;SDS011;5805;51.542;7.230;2023-02-28T01:07:30;4.07;;;1.70;;
11496;SDS011;5805;51.542;7.230;2023-02-28T01:09:55;3.23;;;1.60;;
11496;SDS011;5805;51.542;7.230;2023-02-28T01:12:21;4.83;;;1.90;;
11496;SDS011;5805;51.542;7.230;2023-02-28T01:14:49;2.90;;;1.80;;
11496;SDS011;5805;51.542;7.230;2023-02-28T01:17:16;1.87;;;1.50;;
11496;SDS011;5805;51.542;7.230;2023-02-28T01:19:42;3.93;;;1.80;;
11496;SDS011;5805;51.542;7.230;2023-02-28T01:22:09;3.63;;;1.73;;
11496;SDS011;5805;51.542;7.230;2023-02-28T01:24:35;2.77;;;1.93;;
11496;SDS011;5805;51.542;7.230;2023-02-28T01:27:02;4.13;;;2.23;;
11496;SDS011;5805;51.542;7.230;2023-02-28T01:29:27;2.73;;;1.50;;
11496;SDS011;5805;51.542;7.230;2023-02-28T01:31:53;2.20;;;1.70;;
11496;SDS011;5805;51.542;7.230;2023-02-28T01:34:19;1.77;;;1.60;;
11496;SDS011;5805;51.542;7.230;2023-02-28T01:36:45;2.87;;;1.57;;
11496;SDS011;5805;51.542;7.230;2023-02-28T01:39:12;3.17;;;1.50;;
11496;SDS011;5805;51.542;7.230;2023-02-28T01:41:38;2.03;;;1.43;;
11496;SDS011;5805;51.542;7.230;2023-02-28T01:44:05;2.47;;;1.43;;
11496;SDS011;5805;51.542;7.230;2023-02-28T01:46:32;4.97;;;1.90;;
11496;SDS011;5805;51.542;7.230;2023-02-28T01:49:01;3.37;;;1.57;;
11496;SDS011;5805;51.542;7.230;2023-02-28T01:51:31;2.30;;;1.50;;
11496;SDS011;5805;51.542;7.230;2023-02-28T01:54:00;1.83;;;1.47;;
11496;SDS011;5805;51.542;7.230;2023-02-28T01:56:29;2.67;;;1.80;;
11496;SDS011;5805;51.542;7.230;2023-02-28T01:58:57;2.57;;;1.60;;
11496;SDS011;5805;51.542;7.230;2023-02-28T02:01:24;4.93;;;1.80;;
11496;SDS011;5805;51.542;7.230;2023-02-28T02:03:53;2.93;;;1.77;;
11496;SDS011;5805;51.542;7.230;2023-02-28T02:06:21;3.27;;;1.90;;
11496;SDS011;5805;51.542;7.230;2023-02-28T02:08:47;5.33;;;1.80;;
11496;SDS011;5805;51.542;7.230;2023-02-28T02:11:13;4.43;;;2.00;;
11496;SDS011;5805;51.542;7.230;2023-02-28T02:13:51;3.63;;;1.63;;
11496;SDS011;5805;51.542;7.230;2023-02-28T02:16:29;2.20;;;1.37;;
11496;SDS011;5805;51.542;7.230;2023-02-28T02:19:08;3.70;;;1.77;;
11496;SDS011;5805;51.542;7.230;2023-02-28T02:21:53;2.13;;;1.27;;
11496;SDS011;5805;51.542;7.230;2023-02-28T02:27:45;3.10;;;2.00;;
11496;SDS011;5805;51.542;7.230;2023-02-28T02:36:49;2.93;;;1.70;;
11496;SDS011;5805;51.542;7.230;2023-02-28T02:39:23;2.07;;;1.67;;
11496;SDS011;5805;51.542;7.230;2023-02-28T02:41:56;3.90;;;1.67;;
11496;SDS011;5805;51.542;7.230;2023-02-28T02:44:27;3.83;;;1.87;;
11496;SDS011;5805;51.542;7.230;2023-02-28T02:46:58;1.70;;;1.43;;
11496;SDS011;5805;51.542;7.230;2023-02-28T02:49:29;1.70;;;1.47;;
11496;SDS011;5805;51.542;7.230;2023-02-28T02:52:00;3.03;;;1.60;;
11496;SDS011;5805;51.542;7.230;2023-02-28T02:54:30;2.23;;;1.43;;
11496;SDS011;5805;51.542;7.230;2023-02-28T02:56:59;2.50;;;1.43;;
11496;SDS011;5805;51.542;7.230;2023-02-28T02:59:28;2.10;;;1.50;;
11496;SDS011;5805;51.542;7.230;2023-02-28T03:01:55;3.30;;;1.80;;
11496;SDS011;5805;51.542;7.230;2023-02-28T03:04:23;3.03;;;1.50;;
11496;SDS011;5805;51.542;7.230;2023-02-28T03:06:52;3.13;;;1.57;;
11496;SDS011;5805;51.542;7.230;2023-02-28T03:09:23;2.93;;;1.60;;
11496;SDS011;5805;51.542;7.230;2023-02-28T03:11:50;1.93;;;1.50;;
11496;SDS011;5805;51.542;7.230;2023-02-28T03:14:30;3.57;;;1.67;;
11496;SDS011;5805;51.542;7.230;2023-02-28T03:17:13;2.53;;;1.33;;
11496;SDS011;5805;51.542;7.230;2023-02-28T03:19:51;3.03;;;1.47;;
11496;SDS011;5805;51.542;7.230;2023-02-28T03:22:33;2.10;;;1.30;;
11496;SDS011;5805;51.542;7.230;2023-02-28T03:25:12;2.23;;;1.50;;
11496;SDS011;5805;51.542;7.230;2023-02-28T03:27:46;4.10;;;1.60;;
11496;SDS011;5805;51.542;7.230;2023-02-28T03:30:22;2.53;;;1.53;;
11496;SDS011;5805;51.542;7.230;2023-02-28T03:32:55;2.13;;;1.40;;
11496;SDS011;5805;51.542;7.230;2023-02-28T03:35:24;4.13;;;1.80;;
11496;SDS011;5805;51.542;7.230;2023-02-28T03:37:54;3.40;;;1.60;;
11496;SDS011;5805;51.542;7.230;2023-02-28T03:40:27;3.10;;;1.53;;
11496;SDS011;5805;51.542;7.230;2023-02-28T03:42:58;2.70;;;1.50;;
11496;SDS011;5805;51.542;7.230;2023-02-28T03:45:27;1.83;;;1.30;;
11496;SDS011;5805;51.542;7.230;2023-02-28T03:47:57;4.03;;;1.40;;
11496;SDS011;5805;51.542;7.230;2023-02-28T03:50:26;2.97;;;1.70;;
11496;SDS011;5805;51.542;7.230;2023-02-28T03:52:58;2.20;;;1.50;;
11496;SDS011;5805;51.542;7.230;2023-02-28T03:55:30;2.57;;;1.70;;
11496;SDS011;5805;51.542;7.230;2023-02-28T03:58:01;2.33;;;1.83;;
11496;SDS011;5805;51.542;7.230;2023-02-28T04:00:31;2.20;;;1.60;;
11496;SDS011;5805;51.542;7.230;2023-02-28T04:03:00;2.40;;;1.47;;
11496;SDS011;5805;51.542;7.230;2023-02-28T04:05:26;3.73;;;1.97;;
11496;SDS011;5805;51.542;7.230;2023-02-28T04:07:52;2.33;;;1.63;;
11496;SDS011;5805;51.542;7.230;2023-02-28T04:10:18;3.23;;;1.60;;
11496;SDS011;5805;51.542;7.230;2023-02-28T04:12:45;2.60;;;1.37;;
11496;SDS011;5805;51.542;7.230;2023-02-28T04:15:11;4.03;;;1.57;;
11496;SDS011;5805;51.542;7.230;2023-02-28T04:17:37;1.87;;;1.40;;
11496;SDS011;5805;51.542;7.230;2023-02-28T04:20:02;1.53;;;1.40;;
11496;SDS011;5805;51.542;7.230;2023-02-28T04:22:29;2.97;;;1.43;;
11496;SDS011;5805;51.542;7.230;2023-02-28T04:24:55;3.23;;;1.77;;
11496;SDS011;5805;51.542;7.230;2023-02-28T04:27:21;5.63;;;1.80;;
11496;SDS011;5805;51.542;7.230;2023-02-28T04:29:48;2.57;;;1.43;;
11496;SDS011;5805;51.542;7.230;2023-02-28T04:32:14;3.17;;;1.83;;
11496;SDS011;5805;51.542;7.230;2023-02-28T04:34:39;4.10;;;1.70;;
11496;SDS011;5805;51.542;7.230;2023-02-28T04:37:05;4.10;;;1.60;;
11496;SDS011;5805;51.542;7.230;2023-02-28T04:39:34;2.63;;;1.10;;
11496;SDS011;5805;51.542;7.230;2023-02-28T04:42:00;1.53;;;1.20;;
11496;SDS011;5805;51.542;7.230;2023-02-28T04:44:26;4.60;;;1.60;;
11496;SDS011;5805;51.542;7.230;2023-02-28T04:46:53;2.07;;;1.23;;
11496;SDS011;5805;51.542;7.230;2023-02-28T04:49:18;1.70;;;1.30;;
11496;SDS011;5805;51.542;7.230;2023-02-28T04:51:44;1.57;;;1.27;;
11496;SDS011;5805;51.542;7.230;2023-02-28T04:54:12;2.60;;;1.47;;
11496;SDS011;5805;51.542;7.230;2023-02-28T04:56:37;2.73;;;1.30;;
11496;SDS011;5805;51.542;7.230;2023-02-28T04:59:03;2.87;;;1.50;;
11496;SDS011;5805;51.542;7.230;2023-02-28T05:01:29;2.50;;;1.40;;
11496;SDS011;5805;51.542;7.230;2023-02-28T05:03:59;2.07;;;1.50;;
11496;SDS011;5805;51.542;7.230;2023-02-28T05:06:26;2.63;;;1.40;;
11496;SDS011;5805;51.542;7.230;2023-02-28T05:08:53;2.87;;;1.50;;
11496;SDS011;5805;51.542;7.230;2023-02-28T05:11:21;3.73;;;1.60;;
11496;SDS011;5805;51.542;7.230;2023-02-28T05:13:49;3.00;;;1.40;;
11496;SDS011;5805;51.542;7.230;2023-02-28T05:16:16;1.70;;;1.00;;
11496;SDS011;5805;51.542;7.230;2023-02-28T05:18:42;1.70;;;1.40;;
11496;SDS011;5805;51.542;7.230;2023-02-28T05:21:17;1.63;;;1.40;;
11496;SDS011;5805;51.542;7.230;2023-02-28T05:23:49;2.40;;;1.47;;
11496;SDS011;5805;51.542;7.230;2023-02-28T05:26:15;2.13;;;1.30;;
11496;SDS011;5805;51.542;7.230;2023-02-28T05:28:41;2.17;;;1.30;;
11496;SDS011;5805;51.542;7.230;2023-02-28T05:31:07;2.37;;;1.50;;
11496;SDS011;5805;51.542;7.230;2023-02-28T05:33:33;2.33;;;1.40;;
11496;SDS011;5805;51.542;7.230;2023-02-28T05:35:58;1.40;;;1.30;;
11496;SDS011;5805;51.542;7.230;2023-02-28T05:38:25;1.57;;;1.20;;
11496;SDS011;5805;51.542;7.230;2023-02-28T05:40:51;3.77;;;1.40;;
11496;SDS011;5805;51.542;7.230;2023-02-28T05:43:17;1.80;;;1.30;;
11496;SDS011;5805;51.542;7.230;2023-02-28T05:45:42;2.13;;;1.50;;
11496;SDS011;5805;51.542;7.230;2023-02-28T05:48:08;1.53;;;1.20;;
11496;SDS011;5805;51.542;7.230;2023-02-28T05:50:34;3.87;;;1.70;;
11496;SDS011;5805;51.542;7.230;2023-02-28T05:52:59;1.93;;;1.63;;
11496;SDS011;5805;51.542;7.230;2023-02-28T05:55:27;3.10;;;1.40;;
11496;SDS011;5805;51.542;7.230;2023-02-28T05:57:52;2.43;;;1.70;;
11496;SDS011;5805;51.542;7.230;2023-02-28T06:00:18;1.73;;;1.30;;
11496;SDS011;5805;51.542;7.230;2023-02-28T06:02:44;4.67;;;1.43;;
11496;SDS011;5805;51.542;7.230;2023-02-28T06:05:12;4.70;;;1.80;;
11496;SDS011;5805;51.542;7.230;2023-02-28T06:07:39;2.20;;;1.40;;
11496;SDS011;5805;51.542;7.230;2023-02-28T06:10:05;2.33;;;1.50;;
11496;SDS011;5805;51.542;7.230;2023-02-28T06:12:33;2.07;;;1.40;;
11496;SDS011;5805;51.542;7.230;2023-02-28T06:14:58;2.50;;;1.40;;
11496;SDS011;5805;51.542;7.230;2023-02-28T06:17:24;2.53;;;1.53;;
11496;SDS011;5805;51.542;7.230;2023-02-28T06:19:50;2.53;;;1.53;;
11496;SDS011;5805;51.542;7.230;2023-02-28T06:22:15;2.07;;;1.50;;
11496;SDS011;5805;51.542;7.230;2023-02-28T06:24:41;1.87;;;1.30;;
11496;SDS011;5805;51.542;7.230;2023-02-28T06:27:07;4.93;;;1.63;;
11496;SDS011;5805;51.542;7.230;2023-02-28T06:29:34;2.33;;;1.50;;
11496;SDS011;5805;51.542;7.230;2023-02-28T06:32:00;2.33;;;1.77;;
11496;SDS011;5805;51.542;7.230;2023-02-28T06:34:27;2.73;;;1.57;;
11496;SDS011;5805;51.542;7.230;2023-02-28T06:36:53;2.20;;;1.60;;
11496;SDS011;5805;51.542;7.230;2023-02-28T06:39:19;3.20;;;1.70;;
11496;SDS011;5805;51.542;7.230;2023-02-28T06:41:45;2.40;;;1.50;;
11496;SDS011;5805;51.542;7.230;2023-02-28T06:44:10;1.67;;;1.50;;
11496;SDS011;5805;51.542;7.230;2023-02-28T06:46:39;3.03;;;1.60;;
11496;SDS011;5805;51.542;7.230;2023-02-28T06:49:05;3.90;;;1.40;;
11496;SDS011;5805;51.542;7.230;2023-02-28T06:51:31;2.57;;;1.50;;
11496;SDS011;5805;51.542;7.230;2023-02-28T06:53:57;2.27;;;1.60;;
11496;SDS011;5805;51.542;7.230;2023-02-28T06:56:22;2.87;;;1.67;;
11496;SDS011;5805;51.542;7.230;2023-02-28T06:58:48;5.90;;;1.50;;
11496;SDS011;5805;51.542;7.230;2023-02-28T07:01:15;4.30;;;1.67;;
11496;SDS011;5805;51.542;7.230;2023-02-28T07:03:43;2.50;;;1.60;;
11496;SDS011;5805;51.542;7.230;2023-02-28T07:06:08;2.43;;;1.90;;
11496;SDS011;5805;51.542;7.230;2023-02-28T07:08:34;4.07;;;1.93;;
11496;SDS011;5805;51.542;7.230;2023-02-28T07:11:00;5.27;;;2.00;;
11496;SDS011;5805;51.542;7.230;2023-02-28T07:13:26;3.40;;;1.93;;
11496;SDS011;5805;51.542;7.230;2023-02-28T07:15:54;6.50;;;1.77;;
11496;SDS011;5805;51.542;7.230;2023-02-28T07:18:21;4.73;;;1.93;;
11496;SDS011;5805;51.542;7.230;2023-02-28T07:20:48;6.67;;;1.97;;
11496;SDS011;5805;51.542;7.230;2023-02-28T07:23:14;4.23;;;2.00;;
11496;SDS011;5805;51.542;7.230;2023-02-28T07:25:40;6.30;;;2.47;;
11496;SDS011;5805;51.542;7.230;2023-02-28T07:28:05;3.30;;;2.07;;
11496;SDS011;5805;51.542;7.230;2023-02-28T07:30:31;6.03;;;1.92;;
11496;SDS011;5805;51.542;7.230;2023-02-28T07:32:57;5.93;;;2.13;;
11496;SDS011;5805;51.542;7.230;2023-02-28T07:35:22;6.10;;;1.90;;
11496;SDS011;5805;51.542;7.230;2023-02-28T07:37:50;5.50;;;2.47;;
11496;SDS011;5805;51.542;7.230;2023-02-28T07:40:15;2.67;;;1.97;;
11496;SDS011;5805;51.542;7.230;2023-02-28T07:42:41;5.33;;;2.27;;
11496;SDS011;5805;51.542;7.230;2023-02-28T07:45:08;3.00;;;2.10;;
11496;SDS011;5805;51.542;7.230;2023-02-28T07:47:35;5.77;;;2.33;;
11496;SDS011;5805;51.542;7.230;2023-02-28T07:50:00;7.40;;;2.20;;
11496;SDS011;5805;51.542;7.230;2023-02-28T07:52:26;6.37;;;2.50;;
11496;SDS011;5805;51.542;7.230;2023-02-28T07:54:53;3.40;;;2.00;;
11496;SDS011;5805;51.542;7.230;2023-02-28T07:57:19;3.17;;;2.00;;
11496;SDS011;5805;51.542;7.230;2023-02-28T07:59:44;3.60;;;1.87;;
11496;SDS011;5805;51.542;7.230;2023-02-28T08:02:10;4.43;;;2.20;;
11496;SDS011;5805;51.542;7.230;2023-02-28T08:04:38;5.03;;;2.50;;
11496;SDS011;5805;51.542;7.230;2023-02-28T08:07:04;6.67;;;4.37;;
11496;SDS011;5805;51.542;7.230;2023-02-28T08:09:29;7.53;;;4.60;;
11496;SDS011;5805;51.542;7.230;2023-02-28T08:11:56;7.00;;;3.00;;
11496;SDS011;5805;51.542;7.230;2023-02-28T08:14:22;3.80;;;2.60;;
11496;SDS011;5805;51.542;7.230;2023-02-28T08:16:48;4.20;;;2.20;;
11496;SDS011;5805;51.542;7.230;2023-02-28T08:19:13;4.13;;;1.80;;
11496;SDS011;5805;51.542;7.230;2023-02-28T08:21:39;3.77;;;2.13;;
11496;SDS011;5805;51.542;7.230;2023-02-28T08:24:05;1.73;;;1.50;;
11496;SDS011;5805;51.542;7.230;2023-02-28T08:26:32;2.70;;;1.77;;
11496;SDS011;5805;51.542;7.230;2023-02-28T08:28:59;3.23;;;1.83;;
11496;SDS011;5805;51.542;7.230;2023-02-28T08:31:24;4.00;;;1.77;;
11496;SDS011;5805;51.542;7.230;2023-02-28T08:33:50;4.43;;;1.80;;
11496;SDS011;5805;51.542;7.230;2023-02-28T08:36:16;1.87;;;1.50;;
11496;SDS011;5805;51.542;7.230;2023-02-28T08:38:42;2.10;;;1.60;;
11496;SDS011;5805;51.542;7.230;2023-02-28T08:41:09;5.80;;;1.87;;
11496;SDS011;5805;51.542;7.230;2023-02-28T08:43:36;2.47;;;1.80;;
11496;SDS011;5805;51.542;7.230;2023-02-28T08:46:04;6.03;;;1.67;;
11496;SDS011;5805;51.542;7.230;2023-02-28T08:48:31;4.97;;;1.77;;
11496;SDS011;5805;51.542;7.230;2023-02-28T08:50:59;2.23;;;1.70;;
11496;SDS011;5805;51.542;7.230;2023-02-28T08:53:26;5.00;;;1.90;;
11496;SDS011;5805;51.542;7.230;2023-02-28T08:55:55;2.60;;;1.80;;
11496;SDS011;5805;51.542;7.230;2023-02-28T08:58:22;1.90;;;1.53;;
11496;SDS011;5805;51.542;7.230;2023-02-28T09:00:48;3.23;;;2.17;;
11496;SDS011;5805;51.542;7.230;2023-02-28T09:03:15;2.33;;;1.70;;
11496;SDS011;5805;51.542;7.230;2023-02-28T09:05:40;3.60;;;2.07;;
11496;SDS011;5805;51.542;7.230;2023-02-28T09:08:06;7.60;;;2.00;;
11496;SDS011;5805;51.542;7.230;2023-02-28T09:10:32;3.83;;;2.07;;
11496;SDS011;5805;51.542;7.230;2023-02-28T09:12:57;4.50;;;1.80;;
11496;SDS011;5805;51.542;7.230;2023-02-28T09:15:23;4.00;;;1.77;;
11496;SDS011;5805;51.542;7.230;2023-02-28T09:17:49;2.30;;;1.70;;
11496;SDS011;5805;51.542;7.230;2023-02-28T09:20:16;2.73;;;1.93;;
11496;SDS011;5805;51.542;7.230;2023-02-28T09:22:42;2.93;;;1.83;;
11496;SDS011;5805;51.542;7.230;2023-02-28T09:25:08;3.65;;;2.50;;
11496;SDS011;5805;51.542;7.230;2023-02-28T09:27:33;3.15;;;2.15;;
11496;SDS011;5805;51.542;7.230;2023-02-28T09:29:59;6.10;;;4.07;;
11496;SDS011;5805;51.542;7.230;2023-02-28T09:32:25;4.75;;;2.13;;
11496;SDS011;5805;51.542;7.230;2023-02-28T09:34:50;4.20;;;2.22;;
11496;SDS011;5805;51.542;7.230;2023-02-28T09:37:17;5.22;;;2.00;;
11496;SDS011;5805;51.542;7.230;2023-02-28T09:39:43;3.28;;;1.52;;
11496;SDS011;5805;51.542;7.230;2023-02-28T09:42:11;3.50;;;1.60;;
11496;SDS011;5805;51.542;7.230;2023-02-28T09:44:46;2.85;;;1.80;;
11496;SDS011;5805;51.542;7.230;2023-02-28T09:47:14;2.58;;;1.35;;
11496;SDS011;5805;51.542;7.230;2023-02-28T09:49:50;1.80;;;1.23;;
11496;SDS011;5805;51.542;7.230;2023-02-28T09:52:18;2.55;;;1.70;;
11496;SDS011;5805;51.542;7.230;2023-02-28T09:54:46;5.38;;;1.50;;
11496;SDS011;5805;51.542;7.230;2023-02-28T09:57:13;4.88;;;2.00;;
11496;SDS011;5805;51.542;7.230;2023-02-28T10:02:36;1.50;;;1.13;;
11496;SDS011;5805;51.542;7.230;2023-02-28T10:05:20;1.98;;;1.00;;
11496;SDS011;5805;51.542;7.230;2023-02-28T10:07:53;2.22;;;1.02;;
11496;SDS011;5805;51.542;7.230;2023-02-28T10:10:27;1.27;;;1.10;;
11496;SDS011;5805;51.542;7.230;2023-02-28T10:12:57;1.02;;;0.80;;
11496;SDS011;5805;51.542;7.230;2023-02-28T10:15:29;0.98;;;0.90;;
11496;SDS011;5805;51.542;7.230;2023-02-28T10:17:56;1.83;;;1.10;;
11496;SDS011;5805;51.542;7.230;2023-02-28T10:20:25;3.03;;;0.98;;
11496;SDS011;5805;51.542;7.230;2023-02-28T10:22:53;0.80;;;0.80;;
11496;SDS011;5805;51.542;7.230;2023-02-28T10:25:24;1.60;;;1.27;;
11496;SDS011;5805;51.542;7.230;2023-02-28T10:27:52;2.72;;;1.38;;
11496;SDS011;5805;51.542;7.230;2023-02-28T10:30:18;2.38;;;1.52;;
11496;SDS011;5805;51.542;7.230;2023-02-28T10:32:47;2.60;;;1.00;;
11496;SDS011;5805;51.542;7.230;2023-02-28T10:35:16;2.75;;;1.77;;
11496;SDS011;5805;51.542;7.230;2023-02-28T10:37:45;1.80;;;1.00;;
11496;SDS011;5805;51.542;7.230;2023-02-28T10:40:27;1.67;;;0.98;;
11496;SDS011;5805;51.542;7.230;2023-02-28T10:42:55;1.15;;;1.05;;
11496;SDS011;5805;51.542;7.230;2023-02-28T10:45:21;2.03;;;1.10;;
11496;SDS011;5805;51.542;7.230;2023-02-28T10:47:50;1.52;;;1.00;;
11496;SDS011;5805;51.542;7.230;2023-02-28T10:50:28;2.40;;;1.40;;
11496;SDS011;5805;51.542;7.230;2023-02-28T10:53:05;2.40;;;1.05;;
11496;SDS011;5805;51.542;7.230;2023-02-28T10:55:41;0.95;;;0.88;;
11496;SDS011;5805;51.542;7.230;2023-02-28T10:58:20;1.30;;;0.90;;
11496;SDS011;5805;51.542;7.230;2023-02-28T11:00:46;0.80;;;0.80;;
11496;SDS011;5805;51.542;7.230;2023-02-28T11:03:21;2.72;;;1.10;;
11496;SDS011;5805;51.542;7.230;2023-02-28T11:05:49;2.38;;;1.00;;
11496;SDS011;5805;51.542;7.230;2023-02-28T11:08:16;1.80;;;0.80;;
11496;SDS011;5805;51.542;7.230;2023-02-28T11:10:45;2.25;;;0.90;;
11496;SDS011;5805;51.542;7.230;2023-02-28T11:13:16;1.92;;;0.98;;
11496;SDS011;5805;51.542;7.230;2023-02-28T11:15:42;1.20;;;0.90;;
11496;SDS011;5805;51.542;7.230;2023-02-28T11:18:21;4.22;;;1.25;;
11496;SDS011;5805;51.542;7.230;2023-02-28T11:20:49;1.25;;;0.80;;
11496;SDS011;5805;51.542;7.230;2023-02-28T11:23:17;1.55;;;1.00;;
11496;SDS011;5805;51.542;7.230;2023-02-28T11:25:48;0.77;;;0.73;;
11496;SDS011;5805;51.542;7.230;2023-02-28T11:28:25;1.75;;;1.02;;
11496;SDS011;5805;51.542;7.230;2023-02-28T11:31:00;1.05;;;0.95;;
11496;SDS011;5805;51.542;7.230;2023-02-28T11:33:28;1.13;;;0.80;;
11496;SDS011;5805;51.542;7.230;2023-02-28T11:35:56;1.50;;;0.82;;
11496;SDS011;5805;51.542;7.230;2023-02-28T11:38:23;1.70;;;1.08;;
11496;SDS011;5805;51.542;7.230;2023-02-28T11:40:54;4.15;;;1.10;;
11496;SDS011;5805;51.542;7.230;2023-02-28T11:43:37;1.90;;;1.00;;
11496;SDS011;5805;51.542;7.230;2023-02-28T11:46:16;2.65;;;1.10;;
11496;SDS011;5805;51.542;7.230;2023-02-28T11:48:52;0.95;;;0.85;;
11496;SDS011;5805;51.542;7.230;2023-02-28T11:51:23;2.10;;;0.88;;
11496;SDS011;5805;51.542;7.230;2023-02-28T11:53:57;1.30;;;1.20;;
11496;SDS011;5805;51.542;7.230;2023-02-28T11:56:38;1.70;;;1.20;;
11496;SDS011;5805;51.542;7.230;2023-02-28T12:02:08;2.88;;;1.20;;
11496;SDS011;5805;51.542;7.230;2023-02-28T12:04:52;1.73;;;1.17;;
11496;SDS011;5805;51.542;7.230;2023-02-28T12:07:25;0.80;;;0.70;;
11496;SDS011;5805;51.542;7.230;2023-02-28T12:09:58;2.58;;;1.30;;
11496;SDS011;5805;51.542;7.230;2023-02-28T12:12:33;0.85;;;0.80;;
11496;SDS011;5805;51.542;7.230;2023-02-28T12:15:24;2.30;;;1.00;;
11496;SDS011;5805;51.542;7.230;2023-02-28T12:18:10;2.00;;;1.17;;
11496;SDS011;5805;51.542;7.230;2023-02-28T12:20:46;3.45;;;1.33;;
11496;SDS011;5805;51.542;7.230;2023-02-28T12:26:10;1.67;;;1.10;;
11496;SDS011;5805;51.542;7.230;2023-02-28T12:28:43;1.08;;;1.00;;
11496;SDS011;5805;51.542;7.230;2023-02-28T12:31:14;3.40;;;1.38;;
11496;SDS011;5805;51.542;7.230;2023-02-28T12:33:43;2.78;;;1.20;;
11496;SDS011;5805;51.542;7.230;2023-02-28T12:36:13;2.00;;;1.38;;
11496;SDS011;5805;51.542;7.230;2023-02-28T12:38:43;2.25;;;1.40;;
11496;SDS011;5805;51.542;7.230;2023-02-28T12:41:12;1.80;;;1.40;;
11496;SDS011;5805;51.542;7.230;2023-02-28T12:43:41;1.70;;;1.40;;
11496;SDS011;5805;51.542;7.230;2023-02-28T12:46:14;1.23;;;1.00;;
11496;SDS011;5805;51.542;7.230;2023-02-28T12:48:44;1.42;;;1.30;;
11496;SDS011;5805;51.542;7.230;2023-02-28T12:51:15;1.50;;;1.00;;
11496;SDS011;5805;51.542;7.230;2023-02-28T12:53:49;1.33;;;1.23;;
11496;SDS011;5805;51.542;7.230;2023-02-28T12:56:28;4.35;;;1.55;;
11496;SDS011;5805;51.542;7.230;2023-02-28T12:59:03;1.38;;;1.27;;
11496;SDS011;5805;51.542;7.230;2023-02-28T13:01:42;4.03;;;1.23;;
11496;SDS011;5805;51.542;7.230;2023-02-28T13:07:36;1.92;;;1.63;;
11496;SDS011;5805;51.542;7.230;2023-02-28T13:10:24;1.63;;;1.38;;
11496;SDS011;5805;51.542;7.230;2023-02-28T13:13:02;1.05;;;1.00;;
11496;SDS011;5805;51.542;7.230;2023-02-28T13:15:29;2.67;;;1.27;;
11496;SDS011;5805;51.542;7.230;2023-02-28T13:18:02;1.30;;;1.20;;
11496;SDS011;5805;51.542;7.230;2023-02-28T13:20:29;3.60;;;1.95;;
11496;SDS011;5805;51.542;7.230;2023-02-28T13:22:59;2.67;;;1.45;;
11496;SDS011;5805;51.542;7.230;2023-02-28T13:31:32;1.90;;;1.35;;
11496;SDS011;5805;51.542;7.230;2023-02-28T13:34:26;3.78;;;1.40;;
11496;SDS011;5805;51.542;7.230;2023-02-28T13:36:52;2.15;;;1.45;;
11496;SDS011;5805;51.542;7.230;2023-02-28T13:40:00;1.70;;;1.25;;
11496;SDS011;5805;51.542;7.230;2023-02-28T13:42:52;3.75;;;1.40;;
11496;SDS011;5805;51.542;7.230;2023-02-28T13:45:25;1.35;;;1.20;;
11496;SDS011;5805;51.542;7.230;2023-02-28T13:47:54;4.82;;;1.40;;
11496;SDS011;5805;51.542;7.230;2023-02-28T13:50:26;1.40;;;1.30;;
11496;SDS011;5805;51.542;7.230;2023-02-28T13:55:57;1.20;;;1.10;;
11496;SDS011;5805;51.542;7.230;2023-02-28T13:58:41;1.77;;;1.42;;
11496;SDS011;5805;51.542;7.230;2023-02-28T14:01:27;1.35;;;1.25;;
11496;SDS011;5805;51.542;7.230;2023-02-28T14:04:18;1.88;;;1.27;;
11496;SDS011;5805;51.542;7.230;2023-02-28T14:07:00;1.70;;;1.40;;
11496;SDS011;5805;51.542;7.230;2023-02-28T14:09:27;1.73;;;1.25;;
11496;SDS011;5805;51.542;7.230;2023-02-28T14:11:55;1.42;;;1.02;;
11496;SDS011;5805;51.542;7.230;2023-02-28T14:17:21;1.90;;;1.30;;
11496;SDS011;5805;51.542;7.230;2023-02-28T14:19:48;1.88;;;1.40;;
11496;SDS011;5805;51.542;7.230;2023-02-28T14:22:16;1.80;;;1.30;;
11496;SDS011;5805;51.542;7.230;2023-02-28T14:25:08;2.33;;;1.30;;
11496;SDS011;5805;51.542;7.230;2023-02-28T14:27:42;1.52;;;1.38;;
11496;SDS011;5805;51.542;7.230;2023-02-28T14:33:22;1.33;;;1.20;;
11496;SDS011;5805;51.542;7.230;2023-02-28T14:35:57;1.42;;;1.33;;
11496;SDS011;5805;51.542;7.230;2023-02-28T14:38:32;1.88;;;1.30;;
11496;SDS011;5805;51.542;7.230;2023-02-28T14:41:03;5.30;;;1.73;;
11496;SDS011;5805;51.542;7.230;2023-02-28T14:43:42;1.88;;;1.35;;
11496;SDS011;5805;51.542;7.230;2023-02-28T14:46:13;3.03;;;1.35;;
11496;SDS011;5805;51.542;7.230;2023-02-28T14:48:39;1.50;;;1.40;;
11496;SDS011;5805;51.542;7.230;2023-02-28T14:51:06;1.95;;;1.35;;
11496;SDS011;5805;51.542;7.230;2023-02-28T14:53:35;3.22;;;1.48;;
11496;SDS011;5805;51.542;7.230;2023-02-28T14:56:02;1.85;;;1.35;;
11496;SDS011;5805;51.542;7.230;2023-02-28T14:58:29;3.15;;;1.50;;
11496;SDS011;5805;51.542;7.230;2023-02-28T15:30:55;2.20;;;1.52;;
11496;SDS011;5805;51.542;7.230;2023-02-28T15:33:22;1.95;;;1.45;;
11496;SDS011;5805;51.542;7.230;2023-02-28T15:35:49;5.07;;;1.85;;
11496;SDS011;5805;51.542;7.230;2023-02-28T15:38:17;2.10;;;1.63;;
11496;SDS011;5805;51.542;7.230;2023-02-28T15:40:49;6.20;;;1.40;;
11496;SDS011;5805;51.542;7.230;2023-02-28T15:43:17;3.85;;;1.77;;
11496;SDS011;5805;51.542;7.230;2023-02-28T15:45:48;2.55;;;1.70;;
11496;SDS011;5805;51.542;7.230;2023-02-28T15:48:24;5.85;;;1.63;;
11496;SDS011;5805;51.542;7.230;2023-02-28T15:50:53;2.22;;;1.35;;
11496;SDS011;5805;51.542;7.230;2023-02-28T15:53:21;1.73;;;1.20;;
11496;SDS011;5805;51.542;7.230;2023-02-28T15:55:52;2.05;;;1.45;;
11496;SDS011;5805;51.542;7.230;2023-02-28T15:58:20;2.00;;;1.35;;
11496;SDS011;5805;51.542;7.230;2023-02-28T16:00:58;3.10;;;1.63;;
11496;SDS011;5805;51.542;7.230;2023-02-28T16:03:43;1.60;;;1.48;;
11496;SDS011;5805;51.542;7.230;2023-02-28T16:08:58;1.63;;;1.45;;
11496;SDS011;5805;51.542;7.230;2023-02-28T16:11:24;2.50;;;1.50;;
11496;SDS011;5805;51.542;7.230;2023-02-28T16:13:50;4.00;;;1.30;;
11496;SDS011;5805;51.542;7.230;2023-02-28T16:16:17;4.28;;;1.65;;
11496;SDS011;5805;51.542;7.230;2023-02-28T16:18:46;4.65;;;1.58;;
11496;SDS011;5805;51.542;7.230;2023-02-28T16:21:12;1.98;;;1.50;;
11496;SDS011;5805;51.542;7.230;2023-02-28T16:23:37;3.28;;;1.60;;